Impacts TAF Board INFO
FOR SITUATIONAL AWARENESS. NOT TO BE USED FOR FLIGHT PLANNING PURPOSES.
IDs:

KLGA - New York/La Guardia, NY, US

Issued at 1127 UTC 19 Jan 2018
Updated at 1304 UTC 19 Jan 2018
Potential Impact None Slight Moderate High
Time<<20/14Z 20/15Z 20/16Z 20/17Z 20/18Z 20/19Z 20/20Z 20/21Z 20/22Z 20/23Z 21/00Z 21/01Z 21/02Z
Type PRVL PRVL PRVL PRVL
VIS >6 >6 >6 >6
CIG -- -- -- --
Cover FEW FEW FEW FEW
FltCat VFR VFR VFR VFR
WX -- -- -- --
WDir 230 240 240 240
WSpd 7 12 12 12
WGst -- 22 22 22

Raw TAF
KLGA 191127Z 1912/2018 27012KT P6SM SKC
  FM192300 23007KT P6SM FEW150
  FM201500 24012G22KT P6SM FEW250


METAR Board
Radar Display
Forecast Discussion

FOR SITUATIONAL AWARENESS. NOT TO BE USED FOR FLIGHT PLANNING PURPOSES.